createdAt,value
2017-03-21T00:00:18.980Z,0
2017-03-21T00:01:18.964Z,0
2017-03-21T00:02:18.953Z,0
2017-03-21T00:03:18.933Z,0
2017-03-21T00:04:18.921Z,0
2017-03-21T00:05:18.583Z,0
2017-03-21T00:06:18.888Z,0
2017-03-21T00:07:18.580Z,0
2017-03-21T00:08:18.574Z,0
2017-03-21T00:09:18.825Z,0
2017-03-21T00:10:18.831Z,0
2017-03-21T00:11:18.828Z,0
2017-03-21T00:12:18.804Z,0
2017-03-21T00:13:18.789Z,0
2017-03-21T00:14:18.480Z,0
2017-03-21T00:15:18.472Z,0
2017-03-21T00:16:18.731Z,0
2017-03-21T00:17:18.712Z,0
2017-03-21T00:18:18.405Z,0
2017-03-21T00:19:18.683Z,0
2017-03-21T00:20:18.674Z,0
2017-03-21T00:21:18.345Z,0
2017-03-21T00:22:18.639Z,0
2017-03-21T00:23:18.627Z,0
2017-03-21T00:24:18.816Z,0
2017-03-21T00:25:18.282Z,0
2017-03-21T00:26:18.288Z,0
2017-03-21T00:27:18.558Z,0
2017-03-21T00:28:18.552Z,0
2017-03-21T00:29:17.930Z,0
2017-03-21T00:30:18.232Z,0
2017-03-21T00:31:18.200Z,0
2017-03-21T00:32:18.493Z,0
2017-03-21T00:33:18.472Z,0
2017-03-21T00:34:18.180Z,0
2017-03-21T00:35:18.146Z,0
2017-03-21T00:36:18.124Z,0
2017-03-21T00:37:18.424Z,0
2017-03-21T00:38:18.394Z,0
2017-03-21T00:39:18.378Z,0
2017-03-21T00:40:18.078Z,0
2017-03-21T00:41:18.065Z,0
2017-03-21T00:42:18.040Z,0
2017-03-21T00:43:17.710Z,0
2017-03-21T00:44:18.312Z,0
2017-03-21T00:45:18.298Z,0
2017-03-21T00:46:18.263Z,0
2017-03-21T00:47:18.287Z,0
2017-03-21T00:48:18.257Z,0
2017-03-21T00:49:18.245Z,0
2017-03-21T00:50:18.436Z,0
2017-03-21T00:51:18.216Z,0
2017-03-21T00:52:18.204Z,0
2017-03-21T00:53:32.784Z,0
2017-03-21T00:54:18.165Z,0
2017-03-21T00:55:18.058Z,0
2017-03-21T00:56:18.124Z,0
2017-03-21T00:57:17.817Z,0
2017-03-21T00:58:18.151Z,0
2017-03-21T00:59:17.987Z,0
2017-03-21T01:00:18.287Z,0
2017-03-21T01:01:18.059Z,0
2017-03-21T01:02:18.032Z,0
2017-03-21T01:03:18.002Z,0
2017-03-21T01:04:17.702Z,0
2017-03-21T01:05:17.989Z,0
2017-03-21T01:06:17.980Z,0
2017-03-21T01:07:17.958Z,0
2017-03-21T01:08:17.959Z,0
2017-03-21T01:09:17.951Z,0
2017-03-21T01:10:17.916Z,0
2017-03-21T01:11:17.901Z,0
2017-03-21T01:12:17.593Z,0
2017-03-21T01:13:17.874Z,0
2017-03-21T01:14:17.844Z,0
2017-03-21T01:15:17.855Z,0
2017-03-21T01:16:17.799Z,0
2017-03-21T01:17:17.820Z,0
2017-03-21T01:18:17.498Z,0
2017-03-21T01:19:17.802Z,0
2017-03-21T01:20:17.765Z,0
2017-03-21T01:21:17.745Z,0
2017-03-21T01:22:17.715Z,0
2017-03-21T01:23:17.730Z,0
2017-03-21T01:24:17.714Z,0
2017-03-21T01:25:31.333Z,0
2017-03-21T01:26:17.690Z,0
2017-03-21T01:27:17.639Z,0
2017-03-21T01:28:17.331Z,0
2017-03-21T01:29:17.348Z,0
2017-03-21T01:30:17.821Z,0
2017-03-21T01:31:17.600Z,0
2017-03-21T01:32:17.599Z,0
2017-03-21T01:33:17.557Z,0
2017-03-21T01:34:17.776Z,0
2017-03-21T01:35:17.746Z,0
2017-03-21T01:36:17.506Z,0
2017-03-21T01:37:17.186Z,0
2017-03-21T01:38:17.465Z,0
2017-03-21T01:39:17.167Z,0
2017-03-21T01:40:17.452Z,0
2017-03-21T01:41:17.447Z,0
2017-03-21T01:42:17.425Z,0
2017-03-21T01:43:17.419Z,0
2017-03-21T01:44:17.393Z,0
2017-03-21T01:45:17.359Z,0
2017-03-21T01:46:17.357Z,0
2017-03-21T01:47:17.334Z,0
2017-03-21T01:48:17.332Z,0
2017-03-21T01:49:17.319Z,0
2017-03-21T01:50:17.299Z,0
2017-03-21T01:51:17.297Z,0
2017-03-21T01:52:17.259Z,0
2017-03-21T01:53:17.298Z,0
2017-03-21T01:54:17.239Z,0
2017-03-21T01:55:16.919Z,0
2017-03-21T01:56:17.190Z,0
2017-03-21T01:57:17.196Z,0
2017-03-21T01:58:17.178Z,0
2017-03-21T01:59:17.163Z,0
2017-03-21T02:00:16.831Z,0
2017-03-21T02:01:17.171Z,0
2017-03-21T02:02:16.812Z,0
2017-03-21T02:03:17.081Z,0
2017-03-21T02:04:17.093Z,0
2017-03-21T02:05:16.950Z,0
2017-03-21T02:06:17.048Z,0
2017-03-21T02:07:17.031Z,0
2017-03-21T02:08:17.009Z,0
2017-03-21T02:09:17.227Z,0
2017-03-21T02:10:17.015Z,0
2017-03-21T02:11:16.975Z,0
2017-03-21T02:12:16.651Z,0
2017-03-21T02:13:16.648Z,0
2017-03-21T02:14:17.131Z,0
2017-03-21T02:15:16.612Z,0
2017-03-21T02:16:16.886Z,0
2017-03-21T02:17:16.890Z,0
2017-03-21T02:18:16.859Z,0
2017-03-21T02:19:16.872Z,0
2017-03-21T02:20:16.526Z,0
2017-03-21T02:21:16.816Z,0
2017-03-21T02:22:16.806Z,0
2017-03-21T02:23:16.813Z,0
2017-03-21T02:24:16.173Z,0
2017-03-21T02:25:16.779Z,0
2017-03-21T02:26:16.770Z,0
2017-03-21T02:27:16.745Z,0
2017-03-21T02:28:16.409Z,0
2017-03-21T02:29:16.705Z,0
2017-03-21T02:30:16.097Z,0
2017-03-21T02:31:16.668Z,0
2017-03-21T02:32:16.367Z,0
2017-03-21T02:33:16.353Z,0
2017-03-21T02:34:16.617Z,0
2017-03-21T02:35:16.625Z,0
2017-03-21T02:36:16.283Z,0
2017-03-21T02:37:16.301Z,0
2017-03-21T02:38:16.558Z,0
2017-03-21T02:39:16.759Z,0
2017-03-21T02:40:16.759Z,0
2017-03-21T02:41:16.531Z,0
2017-03-21T02:42:16.500Z,0
2017-03-21T02:43:16.498Z,0
2017-03-21T02:44:16.173Z,0
2017-03-21T02:45:16.142Z,0
2017-03-21T02:46:16.453Z,0
2017-03-21T02:47:16.415Z,0
2017-03-21T02:48:16.431Z,0
2017-03-21T02:49:16.389Z,0
2017-03-21T02:50:16.388Z,0
2017-03-21T02:51:16.355Z,0
2017-03-21T02:52:16.353Z,0
2017-03-21T02:53:16.325Z,0
2017-03-21T02:54:16.029Z,0
2017-03-21T02:55:16.305Z,0
2017-03-21T02:56:16.273Z,0
2017-03-21T02:57:16.291Z,0
2017-03-21T02:58:16.258Z,0
2017-03-21T02:59:16.240Z,0
2017-03-21T03:00:16.239Z,0
2017-03-21T03:01:16.189Z,0
2017-03-21T03:02:16.187Z,0
2017-03-21T03:03:16.187Z,0
2017-03-21T03:04:16.163Z,0
2017-03-21T03:05:16.156Z,0
2017-03-21T03:06:16.133Z,0
2017-03-21T03:07:15.822Z,0
2017-03-21T03:08:15.809Z,0
2017-03-21T03:09:15.793Z,0
2017-03-21T03:10:16.076Z,0
2017-03-21T03:11:16.078Z,0
2017-03-21T03:12:16.049Z,0
2017-03-21T03:13:16.053Z,0
2017-03-21T03:14:16.207Z,0
2017-03-21T03:15:16.239Z,0
2017-03-21T03:16:15.976Z,0
2017-03-21T03:17:15.982Z,0
2017-03-21T03:18:16.154Z,0
2017-03-21T03:19:16.016Z,0
2017-03-21T03:20:15.314Z,0
2017-03-21T03:21:15.916Z,0
2017-03-21T03:22:15.894Z,0
2017-03-21T03:23:15.879Z,0
2017-03-21T03:24:15.864Z,0
2017-03-21T03:25:15.877Z,0
2017-03-21T03:26:15.876Z,0
2017-03-21T03:27:15.815Z,0
2017-03-21T03:28:15.510Z,0
2017-03-21T03:29:15.796Z,0
2017-03-21T03:30:15.761Z,0
2017-03-21T03:31:15.766Z,0
2017-03-21T03:32:15.441Z,0
2017-03-21T03:33:15.445Z,0
2017-03-21T03:34:15.718Z,0
2017-03-21T03:35:15.680Z,0
2017-03-21T03:36:15.686Z,0
2017-03-21T03:37:15.692Z,0
2017-03-21T03:38:15.357Z,0
2017-03-21T03:39:15.630Z,0
2017-03-21T03:40:15.301Z,0
2017-03-21T03:41:15.576Z,0
2017-03-21T03:42:15.610Z,0
2017-03-21T03:43:15.570Z,0
2017-03-21T03:44:15.570Z,0
2017-03-21T03:45:15.227Z,0
2017-03-21T03:46:15.233Z,0
2017-03-21T03:47:15.184Z,0
2017-03-21T03:48:15.181Z,0
2017-03-21T03:49:15.189Z,0
2017-03-21T03:50:15.163Z,0
2017-03-21T03:51:15.425Z,0
2017-03-21T03:52:15.438Z,0
2017-03-21T03:53:15.414Z,0
2017-03-21T03:54:15.414Z,0
2017-03-21T03:55:15.372Z,0
2017-03-21T03:56:15.044Z,0
2017-03-21T03:57:15.347Z,0
2017-03-21T03:58:15.337Z,0
2017-03-21T03:59:15.322Z,0
2017-03-21T04:00:15.325Z,0
2017-03-21T04:01:15.262Z,0
2017-03-21T04:02:15.280Z,0
2017-03-21T04:03:15.255Z,0
2017-03-21T04:04:15.243Z,0
2017-03-21T04:05:14.935Z,0
2017-03-21T04:06:14.886Z,0
2017-03-21T04:07:15.189Z,0
2017-03-21T04:08:15.180Z,0
2017-03-21T04:09:15.150Z,0
2017-03-21T04:10:15.149Z,0
2017-03-21T04:11:15.122Z,0
2017-03-21T04:12:15.126Z,0
2017-03-21T04:13:15.087Z,0
2017-03-21T04:14:15.103Z,0
2017-03-21T04:15:15.079Z,0
2017-03-21T04:16:14.762Z,0
2017-03-21T04:17:15.030Z,0
2017-03-21T04:18:15.006Z,0
2017-03-21T04:19:15.017Z,0
2017-03-21T04:20:14.979Z,0
2017-03-21T04:21:14.973Z,0
2017-03-21T04:22:14.951Z,0
2017-03-21T04:23:14.637Z,0
2017-03-21T04:24:14.917Z,0
2017-03-21T04:25:14.895Z,0
2017-03-21T04:26:14.881Z,0
2017-03-21T04:27:14.875Z,0
2017-03-21T04:28:14.848Z,0
2017-03-21T04:29:14.862Z,0
2017-03-21T04:30:14.842Z,0
2017-03-21T04:31:14.785Z,0
2017-03-21T04:32:14.780Z,0
2017-03-21T04:33:14.771Z,0
2017-03-21T04:34:14.768Z,0
2017-03-21T04:35:14.425Z,0
2017-03-21T04:36:14.114Z,0
2017-03-21T04:37:14.732Z,0
2017-03-21T04:38:14.378Z,0
2017-03-21T04:39:14.356Z,0
2017-03-21T04:40:14.673Z,0
2017-03-21T04:41:14.343Z,0
2017-03-21T04:42:14.626Z,0
2017-03-21T04:43:14.623Z,0
2017-03-21T04:44:14.303Z,0
2017-03-21T04:45:14.579Z,0
2017-03-21T04:46:14.549Z,0
2017-03-21T04:47:14.560Z,0
2017-03-21T04:48:13.920Z,0
2017-03-21T04:49:14.517Z,0
2017-03-21T04:50:14.523Z,0
2017-03-21T04:51:14.160Z,0
2017-03-21T04:52:14.471Z,0
2017-03-21T04:53:14.470Z,0
2017-03-21T04:54:14.153Z,0
2017-03-21T04:55:14.419Z,0
2017-03-21T04:56:14.387Z,0
2017-03-21T04:57:14.404Z,0
2017-03-21T04:58:14.057Z,0
2017-03-21T04:59:14.345Z,0
2017-03-21T05:00:14.323Z,0
2017-03-21T05:01:14.318Z,0
2017-03-21T05:02:14.303Z,0
2017-03-21T05:03:14.300Z,0
2017-03-21T05:04:14.302Z,5
2017-03-21T05:05:13.955Z,5
2017-03-21T05:06:14.238Z,5
2017-03-21T05:07:14.254Z,5
2017-03-21T05:08:14.196Z,5
2017-03-21T05:09:14.204Z,10
2017-03-21T05:10:14.183Z,10
2017-03-21T05:11:14.132Z,10
2017-03-21T05:12:13.876Z,15
2017-03-21T05:13:14.148Z,15
2017-03-21T05:14:14.115Z,15
2017-03-21T05:15:14.095Z,20
2017-03-21T05:16:13.768Z,20
2017-03-21T05:17:13.757Z,25
2017-03-21T05:18:14.048Z,25
2017-03-21T05:19:14.047Z,30
2017-03-21T05:20:14.029Z,30
2017-03-21T05:21:14.014Z,35
2017-03-21T05:22:13.985Z,40
2017-03-21T05:23:13.975Z,45
2017-03-21T05:24:13.648Z,50
2017-03-21T05:25:13.938Z,50
2017-03-21T05:26:13.630Z,55
2017-03-21T05:27:13.925Z,60
2017-03-21T05:28:13.899Z,65
2017-03-21T05:29:13.902Z,75
2017-03-21T05:30:13.570Z,80
2017-03-21T05:31:13.541Z,80
2017-03-21T05:32:13.831Z,85
2017-03-21T05:33:13.536Z,90
2017-03-21T05:34:13.800Z,95
2017-03-21T05:35:13.805Z,100
2017-03-21T05:36:13.478Z,110
2017-03-21T05:37:13.767Z,115
2017-03-21T05:38:13.748Z,120
2017-03-21T05:39:13.745Z,130
2017-03-21T05:40:13.707Z,135
2017-03-21T05:41:13.687Z,140
2017-03-21T05:42:13.670Z,150
2017-03-21T05:43:13.695Z,160
2017-03-21T05:44:13.650Z,170
2017-03-21T05:45:13.636Z,175
2017-03-21T05:46:13.320Z,185
2017-03-21T05:47:13.294Z,195
2017-03-21T05:48:13.611Z,195
2017-03-21T05:49:13.572Z,200
2017-03-21T05:50:13.565Z,205
2017-03-21T05:51:13.521Z,210
2017-03-21T05:52:13.537Z,215
2017-03-21T05:53:13.501Z,225
2017-03-21T05:54:13.489Z,230
2017-03-21T05:55:13.484Z,240
2017-03-21T05:56:13.485Z,245
2017-03-21T05:57:13.448Z,255
2017-03-21T05:58:13.425Z,265
2017-03-21T05:59:13.422Z,275
2017-03-21T06:00:13.414Z,285
2017-03-21T06:01:13.395Z,295
2017-03-21T06:02:13.360Z,305
2017-03-21T06:03:13.371Z,310
2017-03-21T06:04:13.053Z,320
2017-03-21T06:05:12.725Z,335
2017-03-21T06:06:13.307Z,335
2017-03-21T06:07:13.283Z,350
2017-03-21T06:08:13.288Z,360
2017-03-21T06:09:13.284Z,370
2017-03-21T06:10:13.253Z,380
2017-03-21T06:11:13.233Z,390
2017-03-21T06:12:13.228Z,395
2017-03-21T06:13:13.229Z,400
2017-03-21T06:14:13.201Z,410
2017-03-21T06:15:13.186Z,420
2017-03-21T06:16:12.843Z,430
2017-03-21T06:17:13.144Z,445
2017-03-21T06:18:12.849Z,475
2017-03-21T06:19:13.154Z,525
2017-03-21T06:20:12.490Z,590
2017-03-21T06:21:12.774Z,600
2017-03-21T06:22:13.084Z,605
2017-03-21T06:23:12.750Z,610
2017-03-21T06:24:13.030Z,625
2017-03-21T06:25:13.014Z,655
2017-03-21T06:26:13.018Z,665
2017-03-21T06:27:13.001Z,685
2017-03-21T06:28:12.683Z,710
2017-03-21T06:29:12.966Z,720
2017-03-21T06:30:12.979Z,745
2017-03-21T06:31:12.921Z,795
2017-03-21T06:32:12.958Z,845
2017-03-21T06:33:12.916Z,840
2017-03-21T06:34:12.907Z,935
2017-03-21T06:35:12.873Z,960
2017-03-21T06:36:12.543Z,890
2017-03-21T06:37:12.858Z,870
2017-03-21T06:38:12.545Z,930
2017-03-21T06:39:12.828Z,960
2017-03-21T06:40:12.188Z,980
2017-03-21T06:41:12.812Z,1030
2017-03-21T06:42:12.472Z,1165
2017-03-21T06:43:12.771Z,1240
2017-03-21T06:44:12.733Z,1295
2017-03-21T06:45:12.747Z,1390
2017-03-21T06:46:12.423Z,1430
2017-03-21T06:47:12.728Z,1470
2017-03-21T06:48:12.713Z,1400
2017-03-21T06:49:12.697Z,1405
2017-03-21T06:50:12.652Z,1460
2017-03-21T06:51:12.653Z,1530
2017-03-21T06:52:12.631Z,1460
2017-03-21T06:53:12.612Z,1430
2017-03-21T06:54:12.319Z,1410
2017-03-21T06:55:12.609Z,1475
2017-03-21T07:00:58.852Z,1445
2017-03-21T07:01:58.849Z,1430
2017-03-21T07:02:58.827Z,1315
2017-03-21T07:03:58.816Z,1315
2017-03-21T07:04:59.005Z,1420
2017-03-21T07:05:58.781Z,1470
2017-03-21T07:06:58.763Z,1605
2017-03-21T07:07:58.789Z,1765
2017-03-21T07:08:58.745Z,1830
2017-03-21T07:09:58.770Z,1865
2017-03-21T07:10:58.726Z,1900
2017-03-21T07:11:58.761Z,2120
2017-03-21T07:12:58.691Z,2170
2017-03-21T07:13:58.705Z,2165
2017-03-21T07:14:58.352Z,2125
2017-03-21T07:15:58.352Z,2135
2017-03-21T07:16:58.358Z,2155
2017-03-21T07:17:58.628Z,2335
2017-03-21T07:18:58.326Z,2365
2017-03-21T07:19:58.595Z,2415
2017-03-21T07:20:58.598Z,2365
2017-03-21T07:21:58.579Z,2265
2017-03-21T07:22:58.562Z,2280
2017-03-21T07:23:58.562Z,2220
2017-03-21T07:24:58.562Z,2005
2017-03-21T07:25:58.529Z,1960
2017-03-21T07:26:58.407Z,1845
2017-03-21T07:27:58.484Z,1775
2017-03-21T07:28:58.519Z,1845
2017-03-21T07:29:58.488Z,1990
2017-03-21T07:30:58.487Z,2170
2017-03-21T07:31:58.153Z,2090
2017-03-21T07:32:58.492Z,2010
2017-03-21T07:33:58.158Z,1940
2017-03-21T07:34:58.128Z,1970
2017-03-21T07:35:58.091Z,2005
2017-03-21T07:37:13.029Z,1825
2017-03-21T07:37:58.627Z,1715
2017-03-21T07:38:58.082Z,1685
2017-03-21T07:39:58.386Z,1780
2017-03-21T07:40:58.055Z,1915
2017-03-21T07:41:58.275Z,1900
2017-03-21T07:43:11.752Z,1960
2017-03-21T07:43:58.329Z,2030
2017-03-21T07:44:58.011Z,2105
2017-03-21T07:45:58.008Z,2095
2017-03-21T07:46:58.290Z,2010
2017-03-21T07:47:57.986Z,2020
2017-03-21T07:48:57.995Z,1960
2017-03-21T07:49:58.246Z,2010
2017-03-21T07:50:58.276Z,2010
2017-03-21T07:51:57.938Z,2070
2017-03-21T07:52:58.245Z,2035
2017-03-21T07:53:58.226Z,1885
2017-03-21T07:54:57.914Z,1835
2017-03-21T07:55:58.194Z,1725
2017-03-21T07:56:58.165Z,1625
2017-03-21T07:57:58.190Z,1645
2017-03-21T07:58:58.167Z,1600
2017-03-21T07:59:58.169Z,1575
2017-03-21T08:00:58.136Z,1575
2017-03-21T08:01:58.131Z,1540
2017-03-21T08:02:58.118Z,1580
2017-03-21T08:03:57.826Z,1610
2017-03-21T08:04:58.091Z,1600
2017-03-21T08:05:58.078Z,1710
2017-03-21T08:06:58.075Z,1780
2017-03-21T08:07:58.064Z,1785
2017-03-21T08:08:58.262Z,1520
2017-03-21T08:09:58.055Z,1650
2017-03-21T08:10:58.038Z,1690
2017-03-21T08:11:58.024Z,1850
2017-03-21T08:12:58.023Z,1815
2017-03-21T08:13:58.202Z,1610
2017-03-21T08:14:58.161Z,1800
2017-03-21T08:15:57.978Z,1815
2017-03-21T08:16:57.650Z,1675
2017-03-21T08:17:57.935Z,1565
2017-03-21T08:18:57.927Z,1645
2017-03-21T08:19:57.903Z,1700
2017-03-21T08:20:57.889Z,1655
2017-03-21T08:21:57.864Z,1685
2017-03-21T08:22:57.569Z,1805
2017-03-21T08:23:57.555Z,2005
2017-03-21T08:24:57.847Z,2135
2017-03-21T08:25:57.869Z,2035
2017-03-21T08:26:57.828Z,1970
2017-03-21T08:27:57.791Z,1835
2017-03-21T08:28:57.821Z,1770
2017-03-21T08:29:57.793Z,1945
2017-03-21T08:30:57.765Z,1975
2017-03-21T08:31:57.744Z,1990
2017-03-21T08:32:57.743Z,2055
2017-03-21T08:33:57.717Z,2040
2017-03-21T08:34:57.383Z,1945
2017-03-21T08:35:57.690Z,1950
2017-03-21T08:36:57.679Z,1700
2017-03-21T08:37:57.678Z,1770
2017-03-21T08:38:57.640Z,1760
2017-03-21T08:39:57.322Z,1565
2017-03-21T08:40:57.618Z,1700
2017-03-21T08:41:57.600Z,1730
2017-03-21T08:42:57.578Z,1795
2017-03-21T08:43:57.271Z,1840
2017-03-21T08:44:57.457Z,1975
2017-03-21T08:45:57.545Z,2460
2017-03-21T08:46:57.530Z,2220
2017-03-21T08:47:57.505Z,2425
2017-03-21T08:48:57.508Z,2515
2017-03-21T08:49:57.698Z,2585
2017-03-21T08:50:57.379Z,2330
2017-03-21T08:51:57.160Z,2295
2017-03-21T08:52:57.457Z,2760
2017-03-21T08:53:57.449Z,2610
2017-03-21T08:54:57.645Z,2770
2017-03-21T08:55:57.633Z,2995
2017-03-21T08:56:57.080Z,2920
2017-03-21T08:57:57.371Z,3410
2017-03-21T08:58:57.378Z,3590
2017-03-21T08:59:57.373Z,3345
2017-03-21T09:00:57.337Z,3085
2017-03-21T09:01:57.324Z,2940
2017-03-21T09:02:57.320Z,3105
2017-03-21T09:03:57.310Z,2950
2017-03-21T09:04:56.978Z,2415
2017-03-21T09:05:57.296Z,2540
2017-03-21T09:09:29.064Z,2575
2017-03-21T09:09:57.217Z,2740
2017-03-21T09:10:57.209Z,3190
2017-03-21T09:11:56.918Z,3050
2017-03-21T09:12:57.212Z,2890
2017-03-21T09:13:57.185Z,2935
2017-03-21T09:14:56.854Z,2645
2017-03-21T09:15:56.847Z,2950
2017-03-21T09:16:56.831Z,3085
2017-03-21T09:17:57.106Z,2850
2017-03-21T09:18:57.108Z,2710
2017-03-21T09:19:56.800Z,2745
2017-03-21T09:20:56.780Z,3340
2017-03-21T09:21:57.062Z,3280
2017-03-21T09:22:56.450Z,3015
2017-03-21T09:23:56.748Z,3010
2017-03-21T09:24:56.729Z,2930
2017-03-21T09:25:56.723Z,2960
2017-03-21T09:26:56.725Z,3125
2017-03-21T09:27:56.686Z,2370
2017-03-21T09:28:56.672Z,3725
2017-03-21T09:29:56.683Z,4130
2017-03-21T09:30:56.958Z,3655
2017-03-21T09:31:56.645Z,3510
2017-03-21T09:32:56.954Z,3370
2017-03-21T09:33:56.920Z,3200
2017-03-21T09:34:56.895Z,2995
2017-03-21T09:35:56.589Z,2635
2017-03-21T09:36:56.896Z,2785
2017-03-21T09:37:56.570Z,2610
2017-03-21T09:38:56.855Z,2675
2017-03-21T09:39:56.849Z,2460
2017-03-21T09:40:56.830Z,2250
2017-03-21T09:41:56.822Z,2230
2017-03-21T09:42:56.834Z,2465
2017-03-21T09:43:56.531Z,2615
2017-03-21T09:44:56.504Z,2600
2017-03-21T09:45:56.798Z,2405
2017-03-21T09:46:56.768Z,2200
2017-03-21T09:47:56.764Z,2435
2017-03-21T09:48:56.760Z,2350
2017-03-21T09:49:56.723Z,2085
2017-03-21T09:50:56.725Z,1890
2017-03-21T09:51:56.421Z,2275
2017-03-21T09:52:56.715Z,2690
2017-03-21T09:53:56.368Z,3115
2017-03-21T09:54:56.375Z,2635
2017-03-21T09:55:56.347Z,2855
2017-03-21T09:56:56.325Z,3150
2017-03-21T09:57:56.537Z,2765
2017-03-21T09:58:56.640Z,2920
2017-03-21T09:59:56.630Z,3135
2017-03-21T10:00:56.294Z,3425
2017-03-21T10:01:56.793Z,3775
2017-03-21T10:02:56.793Z,3855
2017-03-21T10:03:56.782Z,3495
2017-03-21T10:04:56.579Z,3470
2017-03-21T10:05:56.564Z,3155
2017-03-21T10:06:56.229Z,3130
2017-03-21T10:07:56.246Z,2705
2017-03-21T10:08:56.519Z,2815
2017-03-21T10:09:56.503Z,3015
2017-03-21T10:10:56.525Z,2885
2017-03-21T10:11:56.173Z,2725
2017-03-21T10:12:56.483Z,2575
2017-03-21T10:13:56.476Z,2440
2017-03-21T10:14:56.468Z,2905
2017-03-21T10:15:56.502Z,3230
2017-03-21T10:16:56.443Z,3175
2017-03-21T10:17:56.428Z,3160
2017-03-21T10:18:56.441Z,2770
2017-03-21T10:19:56.435Z,2600
2017-03-21T10:20:56.130Z,3250
2017-03-21T10:21:56.129Z,3175
2017-03-21T10:22:56.417Z,2930
2017-03-21T10:23:56.405Z,2495
2017-03-21T10:24:56.415Z,2740
2017-03-21T10:25:56.367Z,2855
2017-03-21T10:26:56.364Z,3295
2017-03-21T10:27:56.375Z,3380
2017-03-21T10:28:56.065Z,3155
2017-03-21T10:29:56.368Z,3040
2017-03-21T10:30:56.372Z,2950
2017-03-21T10:31:56.255Z,3170
2017-03-21T10:32:56.359Z,3780
2017-03-21T10:33:56.325Z,3370
2017-03-21T10:34:56.344Z,3145
2017-03-21T10:35:56.055Z,2805
2017-03-21T10:36:56.547Z,2815
2017-03-21T10:37:56.349Z,3160
2017-03-21T10:38:56.315Z,3150
2017-03-21T10:39:56.023Z,3075
2017-03-21T10:40:56.304Z,2910
2017-03-21T10:41:56.292Z,3420
2017-03-21T10:42:56.291Z,3685
2017-03-21T10:43:56.295Z,3875
2017-03-21T10:44:56.283Z,3540
2017-03-21T10:45:56.272Z,3450
2017-03-21T10:46:56.285Z,3180
2017-03-21T10:47:55.965Z,3115
2017-03-21T10:48:56.266Z,3475
2017-03-21T10:49:55.960Z,3575
2017-03-21T10:50:56.265Z,2870
2017-03-21T10:51:56.260Z,2745
2017-03-21T10:52:55.946Z,2405
2017-03-21T10:53:56.259Z,2725
2017-03-21T10:54:56.231Z,2880
2017-03-21T10:55:55.930Z,3370
2017-03-21T10:56:56.240Z,3215
2017-03-21T10:57:56.212Z,2415
2017-03-21T10:58:56.203Z,2270
2017-03-21T10:59:56.219Z,2255
2017-03-21T11:00:56.204Z,2410
2017-03-21T11:01:56.194Z,2500
2017-03-21T11:02:56.190Z,2470
2017-03-21T11:03:56.182Z,2635
2017-03-21T11:04:55.893Z,2495
2017-03-21T11:05:56.182Z,2475
2017-03-21T11:06:55.868Z,2405
2017-03-21T11:07:55.848Z,2350
2017-03-21T11:08:55.835Z,2305
2017-03-21T11:09:56.136Z,2455
2017-03-21T11:10:56.118Z,2875
2017-03-21T11:11:55.869Z,3105
2017-03-21T11:12:56.111Z,3015
2017-03-21T11:13:56.132Z,2765
2017-03-21T11:14:56.118Z,2575
2017-03-21T11:15:56.095Z,2580
2017-03-21T11:16:56.081Z,2750
2017-03-21T11:17:56.079Z,2920
2017-03-21T11:18:56.137Z,2675
2017-03-21T11:19:56.094Z,2840
2017-03-21T11:20:56.077Z,2790
2017-03-21T11:21:55.776Z,2890
2017-03-21T11:22:56.042Z,3040
2017-03-21T11:23:56.063Z,3135
2017-03-21T11:24:56.026Z,3125
2017-03-21T11:25:56.050Z,3595
2017-03-21T11:26:55.714Z,3345
2017-03-21T11:27:56.008Z,2600
2017-03-21T11:28:55.995Z,2400
2017-03-21T11:29:56.014Z,2650
2017-03-21T11:30:55.993Z,2825
2017-03-21T11:31:55.985Z,2955
2017-03-21T11:32:55.664Z,2885
2017-03-21T11:33:55.972Z,3100
2017-03-21T11:34:55.987Z,3360
2017-03-21T11:35:55.975Z,3165
2017-03-21T11:36:55.934Z,2770
2017-03-21T11:37:55.646Z,2570
2017-03-21T11:38:55.623Z,2455
2017-03-21T11:39:55.919Z,2535
2017-03-21T11:40:55.909Z,2905
2017-03-21T11:41:55.608Z,3065
2017-03-21T11:42:55.905Z,2550
2017-03-21T11:43:55.610Z,2390
2017-03-21T11:44:55.906Z,2560
2017-03-21T11:45:55.595Z,2565
2017-03-21T11:46:55.567Z,2430
2017-03-21T11:47:55.280Z,2790
2017-03-21T11:48:55.558Z,3285
2017-03-21T11:49:55.578Z,3040
2017-03-21T11:50:55.544Z,2960
2017-03-21T11:51:55.566Z,3110
2017-03-21T11:52:55.842Z,3435
2017-03-21T11:53:55.529Z,2935
2017-03-21T11:54:55.551Z,3040
2017-03-21T11:55:55.506Z,3120
2017-03-21T11:56:55.808Z,3140
2017-03-21T11:57:55.204Z,2920
2017-03-21T11:58:55.492Z,2900
2017-03-21T11:59:55.478Z,2890
2017-03-21T12:00:55.774Z,2925
2017-03-21T12:01:55.791Z,3050
2017-03-21T12:02:55.477Z,3345
2017-03-21T12:03:55.749Z,3205
2017-03-21T12:04:55.458Z,3125
2017-03-21T12:05:55.724Z,3225
2017-03-21T12:06:55.753Z,3515
2017-03-21T12:07:55.724Z,3555
2017-03-21T12:08:55.718Z,3440
2017-03-21T12:09:55.713Z,3335
2017-03-21T12:10:55.694Z,2800
2017-03-21T12:11:55.700Z,3260
2017-03-21T12:12:55.675Z,3340
2017-03-21T12:13:55.680Z,3580
2017-03-21T12:14:55.668Z,3595
2017-03-21T12:15:55.483Z,3180
2017-03-21T12:16:55.662Z,2885
2017-03-21T12:17:55.642Z,2650
2017-03-21T12:18:55.042Z,3320
2017-03-21T12:19:55.652Z,3105
2017-03-21T12:20:55.338Z,3395
2017-03-21T12:21:55.333Z,3480
2017-03-21T12:22:55.636Z,3430
2017-03-21T12:23:55.627Z,3360
2017-03-21T12:24:55.615Z,3415
2017-03-21T12:25:55.578Z,3295
2017-03-21T12:26:55.586Z,3220
2017-03-21T12:27:55.599Z,3305
2017-03-21T12:28:55.289Z,3320
2017-03-21T12:29:55.576Z,3220
2017-03-21T12:30:55.564Z,3160
2017-03-21T12:31:55.564Z,2890
2017-03-21T12:32:55.568Z,2920
2017-03-21T12:33:55.547Z,2920
2017-03-21T12:34:55.294Z,2965
2017-03-21T12:35:55.549Z,3015
2017-03-21T12:36:55.540Z,3160
2017-03-21T12:37:55.524Z,3020
2017-03-21T12:38:55.504Z,3030
2017-03-21T12:39:55.508Z,3025
2017-03-21T12:40:55.503Z,3065
2017-03-21T12:41:55.498Z,3065
2017-03-21T12:42:55.491Z,2955
2017-03-21T12:43:55.475Z,3150
2017-03-21T12:44:55.170Z,3000
2017-03-21T12:45:54.874Z,3090
2017-03-21T12:46:55.515Z,2935
2017-03-21T12:47:55.139Z,2985
2017-03-21T12:48:55.453Z,3050
2017-03-21T12:49:55.448Z,3065
2017-03-21T12:50:55.440Z,2975
2017-03-21T12:51:55.429Z,2965
2017-03-21T12:52:55.433Z,2895
2017-03-21T12:53:55.422Z,2770
2017-03-21T12:54:54.552Z,2885
2017-03-21T12:55:55.409Z,2920
2017-03-21T12:56:55.393Z,2790
2017-03-21T12:57:55.380Z,2610
2017-03-21T12:58:55.066Z,2740
2017-03-21T13:06:08.163Z,2425
2017-03-21T13:06:23.554Z,2585
2017-03-21T13:07:23.845Z,2105
2017-03-21T13:08:23.848Z,2730
2017-03-21T13:09:23.837Z,2760
2017-03-21T13:10:23.826Z,2650
2017-03-21T13:11:23.826Z,2735
2017-03-21T13:12:23.825Z,2960
2017-03-21T13:13:23.813Z,2175
2017-03-21T13:14:23.513Z,1795
2017-03-21T13:15:23.805Z,2750
2017-03-21T13:16:23.798Z,2980
2017-03-21T13:17:23.793Z,2275
2017-03-21T13:18:23.789Z,3165
2017-03-21T13:19:23.795Z,3250
2017-03-21T13:20:23.772Z,2455
2017-03-21T13:21:23.463Z,3410
2017-03-21T13:22:23.772Z,3595
2017-03-21T13:23:23.767Z,3085
2017-03-21T13:24:23.451Z,2925
2017-03-21T13:25:23.756Z,2615
2017-03-21T13:26:23.760Z,2675
2017-03-21T13:27:23.738Z,2860
2017-03-21T13:28:23.740Z,2855
2017-03-21T13:29:23.739Z,2895
2017-03-21T13:30:23.731Z,3010
2017-03-21T13:31:23.719Z,2660
2017-03-21T13:32:23.724Z,2565
2017-03-21T13:33:23.720Z,1930
2017-03-21T13:34:23.714Z,2280
2017-03-21T13:35:23.711Z,2060
2017-03-21T13:36:23.695Z,1895
2017-03-21T13:37:23.695Z,2055
2017-03-21T13:38:23.391Z,2340
2017-03-21T13:39:23.081Z,2725
2017-03-21T13:40:23.682Z,2260
2017-03-21T13:41:23.690Z,2140
2017-03-21T13:42:23.695Z,2285
2017-03-21T13:43:23.058Z,2480
2017-03-21T13:44:23.667Z,1900
2017-03-21T13:45:23.352Z,1730
2017-03-21T13:46:23.347Z,1905
2017-03-21T13:47:23.339Z,1945
2017-03-21T13:48:23.640Z,1860
2017-03-21T13:49:23.634Z,1895
2017-03-21T13:50:23.623Z,1975
2017-03-21T13:51:23.310Z,1950
2017-03-21T13:52:23.309Z,1745
2017-03-21T13:53:23.601Z,1715
2017-03-21T13:54:23.595Z,1750
2017-03-21T13:55:23.586Z,1640
2017-03-21T13:56:23.577Z,1475
2017-03-21T13:57:23.566Z,1450
2017-03-21T13:58:23.593Z,1445
2017-03-21T13:59:23.555Z,1425
2017-03-21T14:00:23.245Z,1370
2017-03-21T14:01:23.536Z,1295
2017-03-21T14:02:23.222Z,1310
2017-03-21T14:03:23.520Z,1375
2017-03-21T14:04:23.510Z,1530
2017-03-21T14:05:23.196Z,1615